Terminal Aerodrome Forecast
Issued by NWS

Home | Current Version | Previous Version | Text Only | Print | Product List | Glossary On
Versions: 1 2 3 4 5 6 7 8 9 10 11 12
000
FTUS42 TJSJ 162300
TAFNCM
TAF
TNCM 162330Z 1700/1724 07009KT P6SM FEW025
     FM171300 10011KT P6SM SCT022
     FM172300 08006KT P6SM FEW022=

USA.gov is the U.S. government's official web portal to all federal, state and local government web resources and services.